Time;durP1;ratioP1;P1;durP2;ratioP2;P2;SDS_P1;SDS_P2;PMS_P1;PMS_P2;Temp;Humidity;BMP_temperature;BMP_pressure;BME280_temperature;BME280_humidity;BME280_pressure;Samples;Min_cycle;Max_cycle;Signal;HPM_P1;HPM_P2
2022/01/12 00:02:04;;;;;;;17.13;9.57;;;-7.10;79.80;;;;;;6214025;23;20000;-68
2022/01/12 00:04:30;;;;;;;14.02;9.23;;;-7.20;80.00;;;;;;6214217;23;20000;-68
2022/01/12 00:06:56;;;;;;;13.93;7.65;;;-7.20;80.00;;;;;;6213815;23;20059;-68
2022/01/12 00:09:22;;;;;;;12.18;7.65;;;-7.20;80.30;;;;;;6213694;23;20009;-69
2022/01/12 00:11:48;;;;;;;12.90;7.72;;;-7.20;80.30;;;;;;6214064;23;20000;-69
2022/01/12 00:14:13;;;;;;;14.23;7.95;;;-7.20;80.30;;;;;;6213952;23;19997;-69
2022/01/12 00:16:40;;;;;;;13.05;7.93;;;-7.20;80.60;;;;;;6214056;23;20008;-70
2022/01/12 00:19:06;;;;;;;12.27;7.63;;;-7.20;80.30;;;;;;6214058;23;20000;-69
2022/01/12 00:21:32;;;;;;;14.15;7.57;;;-7.30;80.40;;;;;;6213380;23;20004;-68
2022/01/12 00:23:57;;;;;;;14.38;8.40;;;-7.30;80.30;;;;;;6213782;23;20317;-68
2022/01/12 00:26:38;;;;;;;13.98;8.15;;;-7.30;80.20;;;;;;6213854;23;20328;-69
2022/01/12 00:34:32;;;;;;;13.60;7.80;;;-7.40;80.10;;;;;;6213731;23;20361;-70
2022/01/12 00:36:58;;;;;;;14.40;7.75;;;-7.40;80.00;;;;;;6213943;23;20004;-71
2022/01/12 00:39:24;;;;;;;11.93;6.88;;;-7.40;79.70;;;;;;6213516;23;20028;-70
2022/01/12 00:41:50;;;;;;;17.20;9.38;;;-7.40;80.00;;;;;;6213780;23;20005;-71
2022/01/12 00:44:24;;;;;;;18.77;10.07;;;-7.40;80.40;;;;;;6213773;23;20079;-71
2022/01/12 00:46:52;;;;;;;17.08;9.45;;;-7.40;80.70;;;;;;6213613;23;20001;-70
2022/01/12 00:49:20;;;;;;;18.50;10.85;;;-7.40;80.60;;;;;;6213255;23;20416;-70
2022/01/12 00:51:47;;;;;;;16.40;9.88;;;-7.40;80.40;;;;;;6213730;23;20126;-64
2022/01/12 00:54:13;;;;;;;14.30;8.98;;;-7.50;80.20;;;;;;6212078;23;20000;-65
2022/01/12 00:56:39;;;;;;;14.07;7.93;;;-7.50;80.30;;;;;;6212292;23;20000;-64
2022/01/12 00:59:05;;;;;;;13.48;7.45;;;-7.50;80.40;;;;;;6212995;23;20005;-65
2022/01/12 01:01:33;;;;;;;12.55;8.35;;;-7.50;80.30;;;;;;6213465;23;20011;-65
2022/01/12 01:03:58;;;;;;;14.60;8.07;;;-7.60;80.10;;;;;;6213276;23;20012;-64
2022/01/12 01:06:24;;;;;;;12.45;7.40;;;-7.60;80.30;;;;;;6213192;23;20001;-64
2022/01/12 01:08:51;;;;;;;12.05;6.85;;;-7.70;80.60;;;;;;6213427;23;20004;-64
2022/01/12 01:11:21;;;;;;;12.00;7.50;;;-7.60;80.60;;;;;;6213515;23;20094;-64
2022/01/12 01:13:57;;;;;;;13.50;8.25;;;-7.70;80.20;;;;;;6213028;23;20298;-65
2022/01/12 01:16:45;;;;;;;13.95;8.82;;;-7.70;80.20;;;;;;6212973;23;19996;-64
2022/01/12 01:27:25;;;;;;;12.90;7.70;;;-7.80;79.80;;;;;;6215299;23;20016;-64
2022/01/12 01:29:53;;;;;;;12.70;8.00;;;-7.90;80.00;;;;;;6213553;23;20004;-64
2022/01/12 01:32:18;;;;;;;15.05;8.43;;;-7.90;79.90;;;;;;6211478;23;20000;-64
2022/01/12 01:34:47;;;;;;;14.05;7.95;;;-7.90;80.20;;;;;;6185087;23;20071;-65
2022/01/12 01:37:13;;;;;;;14.30;7.88;;;-8.00;80.30;;;;;;6185280;23;20072;-65
2022/01/12 01:39:40;;;;;;;14.98;8.75;;;-8.00;80.40;;;;;;6185064;23;20084;-64
2022/01/12 01:42:41;;;;;;;18.65;9.48;;;-8.00;80.30;;;;;;6185270;23;20001;-64
2022/01/12 01:55:34;;;;;;;25.42;13.60;;;-8.20;80.90;;;;;;6185244;23;20012;-64
2022/01/12 01:58:00;;;;;;;21.88;12.10;;;-8.20;80.90;;;;;;6185134;23;20001;-63
2022/01/12 02:00:28;;;;;;;18.58;9.98;;;-8.20;80.90;;;;;;6185386;23;20015;-65
2022/01/12 02:02:57;;;;;;;17.42;10.30;;;-8.30;81.00;;;;;;6185154;23;20307;-64
2022/01/12 02:05:24;;;;;;;16.40;9.38;;;-8.30;81.40;;;;;;6184749;23;20369;-63
2022/01/12 02:07:49;;;;;;;13.98;8.85;;;-8.30;81.30;;;;;;6184672;23;20012;-64
2022/01/12 02:10:15;;;;;;;16.83;9.93;;;-8.30;81.10;;;;;;6185154;23;20009;-64
2022/01/12 02:12:41;;;;;;;14.02;8.88;;;-8.30;81.00;;;;;;6185061;23;19997;-64
2022/01/12 02:15:21;;;;;;;15.43;8.77;;;-8.30;81.00;;;;;;6184943;23;19997;-64
2022/01/12 02:18:03;;;;;;;15.27;8.70;;;-8.30;80.70;;;;;;6185106;23;20008;-64
2022/01/12 02:39:45;;;;;;;22.67;19.38;;;-8.60;79.40;;;;;;6184679;23;20008;-65
2022/01/12 02:40:05;;;;;;;23.55;14.68;;;-8.70;79.50;;;;;;6184404;23;20013;-64
2022/01/12 02:42:31;;;;;;;18.80;11.00;;;-8.70;79.70;;;;;;6184222;23;20028;-65
2022/01/12 02:56:10;;;;;;;13.32;7.47;;;-8.90;79.50;;;;;;6184501;23;20487;-65
2022/01/12 02:58:36;;;;;;;12.05;7.85;;;-8.90;79.50;;;;;;6184600;23;20318;-64
2022/01/12 03:03:50;;;;;;;12.32;7.80;;;-9.00;79.50;;;;;;6184373;23;20012;-64
2022/01/12 03:06:20;;;;;;;13.50;8.02;;;-9.00;79.20;;;;;;6184379;23;20016;-63
2022/01/12 03:08:47;;;;;;;13.18;7.13;;;-9.10;79.30;;;;;;6184947;23;20015;-65
2022/01/12 03:11:15;;;;;;;11.13;6.93;;;-9.10;78.70;;;;;;6184181;23;20001;-63
2022/01/12 03:13:41;;;;;;;13.68;6.85;;;-9.20;78.80;;;;;;6184309;23;20055;-63
2022/01/12 03:16:13;;;;;;;12.18;7.18;;;-9.20;78.60;;;;;;6184159;23;20001;-64
2022/01/12 03:18:40;;;;;;;;;;;-9.20;78.40;;;;;;6184801;23;20028;-64
2022/01/12 03:21:06;;;;;;;17.65;8.25;;;-9.30;78.40;;;;;;6184397;23;19900;-64
2022/01/12 03:23:32;;;;;;;11.73;7.25;;;-9.30;78.80;;;;;;6184049;23;20080;-65
2022/01/12 03:25:58;;;;;;;11.18;7.07;;;-9.30;78.60;;;;;;6183983;23;20129;-63
2022/01/12 03:28:23;;;;;;;13.05;7.13;;;-9.40;78.60;;;;;;6184153;23;20052;-64
2022/01/12 03:33:36;;;;;;;12.57;7.13;;;-9.40;79.10;;;;;;6184512;23;20436;-63
2022/01/12 03:38:47;;;;;;;14.20;8.07;;;-9.40;79.20;;;;;;6184194;23;20016;-64
2022/01/12 03:41:12;;;;;;;18.55;8.82;;;-9.40;79.40;;;;;;6180492;23;20076;-63
2022/01/12 03:43:38;;;;;;;25.20;11.90;;;-9.30;79.40;;;;;;6178879;23;20005;-64
2022/01/12 03:46:04;;;;;;;24.45;12.35;;;-9.40;79.10;;;;;;6180223;23;20016;-64
2022/01/12 03:48:30;;;;;;;16.98;8.23;;;-9.40;79.00;;;;;;6183124;23;20012;-64
2022/01/12 03:50:56;;;;;;;11.98;6.40;;;-9.40;79.10;;;;;;6183713;23;20000;-65
2022/01/12 03:53:23;;;;;;;12.48;7.32;;;-9.40;79.40;;;;;;6184006;23;19998;-64
2022/01/12 03:55:48;;;;;;;14.18;8.07;;;-9.40;79.50;;;;;;6183731;23;20128;-64
2022/01/12 03:58:14;;;;;;;13.10;7.32;;;-9.40;79.50;;;;;;6183202;23;20028;-64
2022/01/12 04:00:40;;;;;;;14.38;7.88;;;-9.40;79.40;;;;;;6183917;23;20666;-64
2022/01/12 04:03:07;;;;;;;14.75;7.78;;;-9.40;79.20;;;;;;6183769;23;19997;-64
2022/01/12 04:08:25;;;;;;;16.42;9.02;;;-9.40;79.30;;;;;;6183850;23;20376;-64
2022/01/12 04:10:58;;;;;;;22.27;11.60;;;-9.40;79.10;;;;;;6182958;23;20059;-64
2022/01/12 04:13:26;;;;;;;13.82;8.00;;;-9.40;78.70;;;;;;6183696;23;20021;-64
2022/01/12 04:15:55;;;;;;;11.95;6.32;;;-9.50;78.30;;;;;;6183970;23;20077;-64
2022/01/12 04:18:21;;;;;;;12.93;6.75;;;-9.50;77.80;;;;;;6183781;23;20012;-65
2022/01/12 04:20:49;;;;;;;13.25;8.23;;;-9.60;77.20;;;;;;6183204;23;20013;-64
2022/01/12 04:23:17;;;;;;;14.25;9.23;;;-9.60;77.20;;;;;;6183752;23;20001;-64
2022/01/12 04:26:08;;;;;;;13.70;8.43;;;-9.70;77.60;;;;;;6183551;23;20009;-64
2022/01/12 04:28:35;;;;;;;12.88;8.23;;;-9.80;77.80;;;;;;6183166;23;20008;-64
2022/01/12 04:31:01;;;;;;;14.45;8.98;;;-9.80;77.90;;;;;;6183394;23;20001;-63
2022/01/12 04:33:28;;;;;;;12.32;7.15;;;-9.80;78.10;;;;;;6183420;23;20074;-64
2022/01/12 04:35:55;;;;;;;16.90;8.13;;;-9.90;78.10;;;;;;6183383;23;20001;-64
2022/01/12 04:38:24;;;;;;;26.63;11.65;;;-10.00;78.00;;;;;;6183719;23;20095;-63
2022/01/12 04:40:50;;;;;;;24.45;10.95;;;-9.90;77.80;;;;;;6183331;23;20001;-65
2022/01/12 04:43:18;;;;;;;14.40;8.07;;;-10.00;77.40;;;;;;6183425;23;20305;-63
2022/01/12 04:50:49;;;;;;;17.42;8.60;;;-10.20;77.60;;;;;;6193396;23;20036;-66
2022/01/12 04:53:17;;;;;;;16.27;8.82;;;-10.30;77.60;;;;;;6183488;23;20362;-64
2022/01/12 04:55:43;;;;;;;15.25;8.95;;;-10.30;77.60;;;;;;6156631;23;20309;-63
2022/01/12 04:58:09;;;;;;;25.92;8.85;;;-10.30;77.80;;;;;;6183350;23;20084;-64
2022/01/12 05:00:36;;;;;;;14.93;8.60;;;-10.40;77.50;;;;;;6182974;23;20337;-63
2022/01/12 05:13:44;;;;;;;13.93;8.00;;;-10.70;76.00;;;;;;6182934;23;20015;-64
2022/01/12 05:16:10;;;;;;;12.88;7.05;;;-10.70;75.70;;;;;;6183119;23;19997;-64
2022/01/12 05:18:37;;;;;;;12.30;6.57;;;-10.80;75.40;;;;;;6182844;23;20041;-64
2022/01/12 05:21:04;;;;;;;14.63;7.60;;;-10.80;75.90;;;;;;6183102;23;20005;-64
2022/01/12 05:23:31;;;;;;;16.27;9.95;;;-10.90;76.20;;;;;;6156597;23;20467;-64
2022/01/12 05:25:57;;;;;;;14.88;9.02;;;-10.90;76.30;;;;;;6183017;23;20460;-64
2022/01/12 05:28:24;;;;;;;17.48;14.02;;;-10.90;76.30;;;;;;6182655;23;20001;-64
2022/01/12 05:30:51;;;;;;;26.23;23.17;;;-10.90;76.30;;;;;;6182577;23;20463;-64
2022/01/12 05:33:17;;;;;;;16.98;11.27;;;-10.90;76.30;;;;;;6182879;23;20063;-65
2022/01/12 05:35:44;;;;;;;15.48;10.00;;;-10.90;76.20;;;;;;6182543;23;20021;-63
2022/01/12 05:38:13;;;;;;;16.60;9.70;;;-10.90;76.50;;;;;;6183030;23;20032;-65
2022/01/12 05:40:40;;;;;;;17.25;10.13;;;-10.80;76.40;;;;;;6183122;23;20005;-64
2022/01/12 05:43:06;;;;;;;16.10;9.18;;;-10.90;76.40;;;;;;6182741;23;20012;-65
2022/01/12 05:45:34;;;;;;;18.38;12.23;;;-10.90;76.40;;;;;;6181806;23;20001;-65
2022/01/12 05:50:28;;;;;;;28.25;19.70;;;-10.90;76.90;;;;;;6183250;23;20009;-64
2022/01/12 05:52:54;;;;;;;17.63;11.88;;;-10.80;77.10;;;;;;6183089;23;20009;-64
2022/01/12 05:55:21;;;;;;;15.38;8.55;;;-10.80;77.00;;;;;;6182740;23;20005;-63
2022/01/12 05:57:48;;;;;;;14.35;7.97;;;-10.80;76.80;;;;;;6182704;23;20028;-64
2022/01/12 06:00:16;;;;;;;11.13;6.35;;;-10.80;76.80;;;;;;6183093;23;20084;-64
2022/01/12 06:02:42;;;;;;;11.55;6.72;;;-10.70;76.80;;;;;;6182825;23;20033;-64
2022/01/12 06:05:08;;;;;;;13.80;7.57;;;-10.80;76.60;;;;;;6182476;23;20001;-64
2022/01/12 06:07:34;;;;;;;12.43;7.05;;;-10.80;76.80;;;;;;6182984;23;20333;-64
2022/01/12 06:10:00;;;;;;;13.95;7.15;;;-10.80;77.00;;;;;;6182798;23;20005;-64
2022/01/12 06:12:26;;;;;;;13.93;7.78;;;-10.80;77.20;;;;;;6182985;23;20001;-65
2022/01/12 06:14:51;;;;;;;14.60;8.60;;;-10.80;77.20;;;;;;6184424;23;20024;-64
2022/01/12 06:17:17;;;;;;;16.48;9.15;;;-10.70;77.10;;;;;;6184506;23;20044;-64
2022/01/12 06:19:43;;;;;;;16.75;8.77;;;-10.70;77.20;;;;;;6184735;23;20135;-64
2022/01/12 06:22:08;;;;;;;19.20;9.05;;;-10.70;77.40;;;;;;6184494;23;20001;-64
2022/01/12 06:24:34;;;;;;;14.05;7.93;;;-10.70;77.50;;;;;;6184088;23;20055;-64
2022/01/12 06:27:01;;;;;;;14.52;7.70;;;-10.80;77.40;;;;;;6184344;23;20005;-64
2022/01/12 06:32:09;;;;;;;15.13;8.05;;;-10.80;77.60;;;;;;6185017;23;20313;-67
2022/01/12 06:34:35;;;;;;;13.63;7.70;;;-10.80;78.10;;;;;;6185129;23;20009;-65
2022/01/12 06:37:01;;;;;;;12.05;7.10;;;-10.70;78.30;;;;;;6184318;23;20005;-63
2022/01/12 06:39:28;;;;;;;12.40;7.35;;;-10.70;78.10;;;;;;6184217;23;20009;-64
2022/01/12 06:41:55;;;;;;;11.38;7.25;;;-10.60;77.80;;;;;;6184426;23;20012;-65
2022/01/12 06:44:21;;;;;;;12.07;7.20;;;-10.60;78.00;;;;;;6184140;23;20059;-64
2022/01/12 06:46:48;;;;;;;14.30;7.70;;;-10.50;78.00;;;;;;6183694;23;20009;-64
2022/01/12 06:49:16;;;;;;;12.65;7.28;;;-10.50;77.80;;;;;;6183935;23;20005;-64
2022/01/12 06:51:42;;;;;;;13.57;6.82;;;-10.50;77.60;;;;;;6183856;23;20021;-64
2022/01/12 06:54:09;;;;;;;12.10;6.65;;;-10.50;77.70;;;;;;6184605;23;20417;-65
2022/01/12 06:56:34;;;;;;;14.27;7.25;;;-10.40;77.80;;;;;;6157831;23;20290;-65
2022/01/12 06:59:01;;;;;;;14.95;8.00;;;-10.50;77.80;;;;;;6184666;23;20009;-64
2022/01/12 07:01:26;;;;;;;11.52;6.93;;;-10.40;78.10;;;;;;6184465;23;20492;-65
2022/01/12 07:03:52;;;;;;;11.70;6.32;;;-10.30;77.90;;;;;;6184372;23;20001;-63
2022/01/12 07:06:18;;;;;;;10.73;6.15;;;-10.30;77.50;;;;;;6184069;23;20013;-64
2022/01/12 07:08:44;;;;;;;12.32;6.40;;;-10.30;76.80;;;;;;6158505;23;20108;-65
2022/01/12 07:11:10;;;;;;;12.15;6.07;;;-10.30;76.70;;;;;;6184532;23;19997;-64
2022/01/12 07:13:36;;;;;;;13.55;7.00;;;-10.30;76.80;;;;;;6184252;23;20007;-64
2022/01/12 07:16:02;;;;;;;14.50;7.95;;;-10.20;76.40;;;;;;6183972;23;20333;-64
2022/01/12 07:18:29;;;;;;;35.97;19.33;;;-10.30;76.10;;;;;;6184248;23;19997;-64
2022/01/12 07:20:58;;;;;;;55.65;32.20;;;-10.30;76.00;;;;;;6183851;23;20023;-64
2022/01/12 07:23:25;;;;;;;25.58;13.55;;;-10.30;76.40;;;;;;6183602;23;20460;-64
2022/01/12 07:25:52;;;;;;;55.40;31.67;;;-10.30;76.40;;;;;;6184171;23;20012;-64
2022/01/12 07:28:17;;;;;;;45.70;25.88;;;-10.20;76.50;;;;;;6184141;23;20004;-65
2022/01/12 07:30:43;;;;;;;35.13;20.67;;;-10.10;76.80;;;;;;6183996;23;20001;-66
2022/01/12 07:33:09;;;;;;;30.15;19.05;;;-10.10;76.60;;;;;;6183352;23;20024;-65
2022/01/12 07:35:34;;;;;;;37.05;23.02;;;-9.90;76.60;;;;;;6184708;23;20009;-65
2022/01/12 07:38:00;;;;;;;27.77;17.17;;;-9.80;76.00;;;;;;6183940;23;20732;-64
2022/01/12 07:40:26;;;;;;;35.05;20.45;;;-9.70;75.80;;;;;;6182462;23;20032;-65
2022/01/12 07:42:51;;;;;;;19.75;11.55;;;-9.70;75.50;;;;;;6182866;23;20001;-65
2022/01/12 07:45:18;;;;;;;44.63;22.48;;;-9.70;75.30;;;;;;6183062;23;20009;-66
2022/01/12 07:47:44;;;;;;;23.30;12.35;;;-9.70;75.10;;;;;;6183988;23;20029;-65
2022/01/12 07:50:10;;;;;;;19.90;9.88;;;-9.70;74.90;;;;;;6183542;23;20008;-65
2022/01/12 07:52:37;;;;;;;20.52;11.65;;;-9.70;75.10;;;;;;6183281;23;20123;-65
2022/01/12 07:55:04;;;;;;;14.98;8.30;;;-9.70;74.60;;;;;;6183282;23;20072;-65
2022/01/12 07:57:30;;;;;;;18.35;9.75;;;-9.70;74.20;;;;;;6183736;23;20311;-65
2022/01/12 07:59:56;;;;;;;24.63;12.65;;;-9.70;74.20;;;;;;6183495;23;20001;-65
2022/01/12 08:02:22;;;;;;;15.32;8.30;;;-9.70;74.70;;;;;;6182969;23;20005;-64
2022/01/12 08:04:48;;;;;;;16.60;9.40;;;-9.70;74.70;;;;;;6183688;23;20001;-64
2022/01/12 08:07:14;;;;;;;16.55;9.45;;;-9.60;74.50;;;;;;6183685;23;20000;-65
2022/01/12 08:09:42;;;;;;;19.23;10.25;;;-9.60;74.00;;;;;;6183595;23;20356;-65
2022/01/12 08:12:09;;;;;;;16.38;9.30;;;-9.50;74.50;;;;;;6183908;23;20050;-64
2022/01/12 08:14:35;;;;;;;16.98;8.60;;;-9.50;74.00;;;;;;6183806;23;20020;-64
2022/01/12 08:17:01;;;;;;;16.48;9.50;;;-9.50;74.10;;;;;;6183263;23;20008;-63
2022/01/12 08:19:28;;;;;;;17.58;9.38;;;-9.40;74.20;;;;;;6182946;23;20297;-65
2022/01/12 08:21:54;;;;;;;15.13;8.02;;;-9.40;74.20;;;;;;6183729;23;20421;-64
2022/01/12 08:24:20;;;;;;;14.63;8.00;;;-9.30;73.90;;;;;;6157386;23;20020;-65
2022/01/12 08:26:46;;;;;;;15.07;8.32;;;-9.30;73.10;;;;;;6183611;23;20005;-63
2022/01/12 08:29:15;;;;;;;19.02;10.98;;;-9.20;73.20;;;;;;6183215;23;20325;-66
2022/01/12 08:31:42;;;;;;;17.17;9.77;;;-9.20;73.50;;;;;;6183635;23;20077;-65
2022/01/12 08:34:08;;;;;;;17.27;9.15;;;-9.10;73.80;;;;;;6186441;23;20013;-64
2022/01/12 08:36:34;;;;;;;21.42;11.13;;;-9.00;73.60;;;;;;6183253;23;20001;-66
2022/01/12 08:39:02;;;;;;;30.13;14.40;;;-8.90;73.50;;;;;;6183806;23;20005;-65
2022/01/12 08:41:27;;;;;;;20.20;10.50;;;-8.80;72.60;;;;;;6183611;23;20369;-65
2022/01/12 08:43:53;;;;;;;35.63;16.50;;;-8.90;71.60;;;;;;6183408;23;20080;-66
2022/01/12 08:46:19;;;;;;;30.23;13.52;;;-9.00;71.90;;;;;;6183332;23;20255;-65
2022/01/12 08:48:44;;;;;;;22.60;10.98;;;-9.00;71.90;;;;;;6183251;23;20071;-63
2022/01/12 08:51:10;;;;;;;22.65;11.85;;;-9.00;71.60;;;;;;6183738;23;20001;-65
2022/01/12 08:53:36;;;;;;;20.52;10.00;;;-9.10;71.50;;;;;;6183704;23;20361;-66
2022/01/12 08:56:02;;;;;;;23.17;9.82;;;-9.10;71.70;;;;;;6183484;23;19998;-64
2022/01/12 08:58:27;;;;;;;26.88;10.55;;;-9.10;71.70;;;;;;6183243;23;19997;-65
2022/01/12 09:00:55;;;;;;;29.13;11.23;;;-9.10;72.00;;;;;;6183158;23;19997;-63
2022/01/12 09:03:22;;;;;;;18.77;9.30;;;-9.10;72.10;;;;;;6183402;23;20001;-65
2022/01/12 09:05:49;;;;;;;20.98;9.57;;;-9.10;71.80;;;;;;6183615;23;20005;-66
2022/01/12 09:08:15;;;;;;;30.00;12.48;;;-9.10;72.20;;;;;;6184047;23;20325;-65
2022/01/12 09:10:40;;;;;;;19.27;9.57;;;-9.00;72.40;;;;;;6183445;23;20001;-65
2022/01/12 09:13:06;;;;;;;21.42;9.40;;;-8.70;72.10;;;;;;6183574;23;20001;-66
2022/01/12 09:15:32;;;;;;;28.00;11.57;;;-8.40;72.80;;;;;;6183272;23;20080;-66
2022/01/12 09:17:58;;;;;;;19.13;9.30;;;-8.10;72.20;;;;;;6183643;23;19997;-65
2022/01/12 09:20:24;;;;;;;30.35;13.18;;;-8.00;70.70;;;;;;6183419;23;20005;-65
2022/01/12 09:22:50;;;;;;;26.27;11.18;;;-7.90;70.90;;;;;;6183257;23;20005;-65
2022/01/12 09:25:16;;;;;;;28.58;12.05;;;-7.70;69.30;;;;;;6183333;23;20024;-64
2022/01/12 09:27:42;;;;;;;55.03;32.63;;;-7.70;68.90;;;;;;6183198;23;20417;-65
2022/01/12 09:30:10;;;;;;;54.13;27.52;;;-7.60;69.20;;;;;;6183093;23;20005;-66
2022/01/12 09:32:36;;;;;;;206.05;98.72;;;-7.60;67.60;;;;;;6183290;23;20076;-65
2022/01/12 09:35:04;;;;;;;67.57;34.35;;;-7.60;68.30;;;;;;6183036;23;20011;-65
2022/01/12 09:37:30;;;;;;;50.08;27.52;;;-7.50;67.90;;;;;;6183197;23;20040;-66
2022/01/12 09:39:56;;;;;;;47.20;28.30;;;-7.50;67.50;;;;;;6183370;23;20005;-66
2022/01/12 09:42:22;;;;;;;27.05;16.20;;;-7.50;67.30;;;;;;6183238;23;20028;-65
2022/01/12 09:44:48;;;;;;;29.30;17.15;;;-7.50;67.50;;;;;;6183167;23;20040;-66
2022/01/12 09:47:15;;;;;;;22.40;15.23;;;-7.20;68.20;;;;;;6184248;23;20009;-66
2022/01/12 09:49:43;;;;;;;16.27;10.00;;;-7.10;67.20;;;;;;6185717;23;20036;-65
2022/01/12 09:52:09;;;;;;;21.02;11.80;;;-7.00;66.80;;;;;;6185467;23;20413;-65
2022/01/12 09:54:36;;;;;;;22.65;12.40;;;-7.00;66.30;;;;;;6185411;23;20366;-66
2022/01/12 09:57:03;;;;;;;21.08;10.48;;;-6.80;66.50;;;;;;6185314;23;20005;-66
2022/01/12 09:59:28;;;;;;;28.42;12.35;;;-6.70;65.80;;;;;;6185350;23;20409;-67
2022/01/12 10:01:55;;;;;;;24.05;10.57;;;-6.70;65.30;;;;;;6185275;23;20001;-65
2022/01/12 10:04:28;;;;;;;33.63;14.23;;;-6.90;64.10;;;;;;6185455;23;20108;-65
2022/01/12 10:07:04;;;;;;;32.42;13.57;;;-7.10;63.80;;;;;;6185266;23;20500;-65
2022/01/12 10:09:43;;;;;;;19.02;9.88;;;-7.20;64.50;;;;;;6185110;23;20001;-66
2022/01/12 10:12:19;;;;;;;23.52;11.85;;;-7.30;64.90;;;;;;6185317;23;20369;-66
2022/01/12 10:14:55;;;;;;;18.13;9.05;;;-7.40;64.80;;;;;;6185131;23;20000;-66
2022/01/12 10:17:32;;;;;;;12.43;6.97;;;-7.50;65.20;;;;;;6185195;23;20035;-64
2022/01/12 10:20:21;;;;;;;13.88;7.30;;;-7.60;65.00;;;;;;6184915;23;20035;-65
2022/01/12 10:23:02;;;;;;;18.50;9.70;;;-7.70;65.50;;;;;;6185181;23;20004;-67
2022/01/12 10:25:29;;;;;;;19.75;9.90;;;-7.80;65.60;;;;;;6185623;23;20434;-67
2022/01/12 10:27:56;;;;;;;21.65;11.43;;;-7.80;65.80;;;;;;6185179;23;20005;-65
2022/01/12 10:30:30;;;;;;;21.10;10.68;;;-7.90;65.60;;;;;;6158164;23;20009;-66
2022/01/12 10:33:03;;;;;;;19.88;10.48;;;-8.00;65.30;;;;;;6184917;23;20017;-66
2022/01/12 10:35:29;;;;;;;;;;;-8.00;65.00;;;;;;6185433;23;20009;-64
2022/01/12 10:38:09;;;;;;;22.77;12.52;;;-8.30;64.40;;;;;;6184899;23;19901;-65
2022/01/12 10:41:03;;;;;;;15.00;9.20;;;-8.40;65.40;;;;;;6184981;23;20009;-65
2022/01/12 10:43:37;;;;;;;30.65;16.98;;;-8.40;65.50;;;;;;6184691;23;20001;-67
2022/01/12 10:46:17;;;;;;;20.27;10.70;;;-8.50;65.40;;;;;;6184789;23;20305;-65
2022/01/12 10:48:56;;;;;;;14.95;9.30;;;-8.50;65.70;;;;;;6184415;23;20025;-65
2022/01/12 10:51:28;;;;;;;16.38;8.50;;;-8.60;66.40;;;;;;6184683;23;20365;-65
2022/01/12 10:54:02;;;;;;;14.88;8.10;;;-8.60;66.20;;;;;;6184509;23;19997;-64
2022/01/12 10:56:28;;;;;;;19.48;10.23;;;-8.60;66.30;;;;;;6184773;23;20001;-67
2022/01/12 10:58:55;;;;;;;19.98;10.80;;;-8.70;66.00;;;;;;6183938;23;20421;-65
2022/01/12 11:01:27;;;;;;;33.38;17.20;;;-8.70;65.90;;;;;;6184793;23;20456;-66
2022/01/12 11:03:53;;;;;;;25.50;12.25;;;-8.80;66.20;;;;;;6184247;23;20313;-67
2022/01/12 11:06:19;;;;;;;31.77;18.90;;;-8.80;66.50;;;;;;6184073;23;20115;-64
2022/01/12 11:08:48;;;;;;;40.33;23.23;;;-8.70;66.00;;;;;;6184703;23;20033;-65
2022/01/12 11:11:17;;;;;;;27.00;15.32;;;-8.70;65.30;;;;;;6184347;23;19997;-65
2022/01/12 11:13:45;;;;;;;17.00;8.20;;;-8.80;65.90;;;;;;6184624;23;19997;-65
2022/01/12 11:16:11;;;;;;;24.88;16.35;;;-8.80;66.40;;;;;;6184390;23;20012;-65
2022/01/12 11:18:39;;;;;;;27.02;17.35;;;-8.80;66.30;;;;;;6183980;23;19997;-68
2022/01/12 11:21:14;;;;;;;20.23;11.25;;;-8.80;66.50;;;;;;6184246;23;20029;-65
2022/01/12 11:23:42;;;;;;;25.52;13.43;;;-8.80;65.80;;;;;;6184315;23;20002;-66
2022/01/12 11:26:15;;;;;;;20.70;11.60;;;-8.80;65.90;;;;;;6183345;23;20048;-65
2022/01/12 11:28:42;;;;;;;19.85;12.00;;;-8.80;66.10;;;;;;6184089;23;20105;-66
2022/01/12 11:31:08;;;;;;;29.27;16.23;;;-8.80;65.70;;;;;;6184689;23;20001;-65
2022/01/12 11:33:34;;;;;;;17.50;9.27;;;-8.80;66.00;;;;;;6184270;23;20020;-64
2022/01/12 11:36:02;;;;;;;11.00;6.82;;;-8.80;65.20;;;;;;6184220;23;20302;-65
2022/01/12 11:38:35;;;;;;;9.90;5.88;;;-8.90;65.10;;;;;;6184325;23;20001;-66
2022/01/12 11:41:26;;;;;;;15.15;9.05;;;-9.00;64.50;;;;;;6183871;23;20001;-66
2022/01/12 11:43:51;;;;;;;13.40;7.38;;;-9.00;64.60;;;;;;6157795;23;20009;-65
2022/01/12 11:46:21;;;;;;;12.10;6.88;;;-9.20;64.70;;;;;;6183638;23;20410;-66
2022/01/12 11:48:55;;;;;;;9.80;5.70;;;-9.20;64.40;;;;;;6157432;23;20028;-65
2022/01/12 11:51:43;;;;;;;17.52;10.07;;;-9.10;65.00;;;;;;6184078;23;20508;-65
2022/01/12 11:54:15;;;;;;;138.75;67.65;;;-9.10;64.40;;;;;;6183887;23;20085;-65
2022/01/12 11:56:53;;;;;;;52.60;28.77;;;-9.10;63.90;;;;;;6184292;23;20692;-65
2022/01/12 11:59:20;;;;;;;15.85;9.18;;;-9.20;63.90;;;;;;6184045;23;20052;-64
2022/01/12 12:01:50;;;;;;;14.30;8.35;;;-9.20;63.30;;;;;;6184402;23;20020;-65
2022/01/12 12:04:27;;;;;;;26.90;17.75;;;-9.30;62.90;;;;;;6184225;23;20005;-67
2022/01/12 12:07:14;;;;;;;27.85;18.85;;;-9.40;62.80;;;;;;6184305;23;20005;-65
2022/01/12 12:09:43;;;;;;;29.15;19.63;;;-9.50;63.00;;;;;;6183909;23;20421;-66
2022/01/12 12:12:14;;;;;;;30.33;20.10;;;-9.50;63.60;;;;;;6183814;23;20012;-64
2022/01/12 12:14:42;;;;;;;24.55;14.80;;;-9.40;64.40;;;;;;6183691;23;20001;-66
2022/01/12 12:17:08;;;;;;;14.18;7.97;;;-9.30;63.80;;;;;;6183996;23;20076;-64
2022/01/12 12:19:37;;;;;;;15.88;9.10;;;-9.30;63.00;;;;;;6183861;23;20036;-66
2022/01/12 12:22:10;;;;;;;16.38;9.57;;;-9.30;63.50;;;;;;6184309;23;20001;-66
2022/01/12 12:24:36;;;;;;;11.40;6.68;;;-9.30;64.00;;;;;;6183494;23;20009;-66
2022/01/12 12:27:02;;;;;;;11.38;6.57;;;-9.30;64.20;;;;;;6183834;23;20536;-65
2022/01/12 12:29:28;;;;;;;16.98;10.50;;;-9.20;64.10;;;;;;6183475;23;20005;-67
2022/01/12 12:31:58;;;;;;;13.20;7.82;;;-9.20;64.10;;;;;;6183679;23;20088;-67
2022/01/12 12:34:26;;;;;;;13.77;7.25;;;-9.30;63.70;;;;;;6183741;23;20020;-70
2022/01/12 12:37:06;;;;;;;12.20;7.80;;;-9.40;63.60;;;;;;6183489;23;19997;-66
2022/01/12 12:39:34;;;;;;;12.40;6.80;;;-9.50;64.00;;;;;;6183515;23;20005;-65
2022/01/12 12:42:02;;;;;;;13.18;6.90;;;-9.50;64.50;;;;;;6183529;23;20013;-64
2022/01/12 12:44:32;;;;;;;11.20;6.30;;;-9.50;64.80;;;;;;6183566;23;20036;-65
2022/01/12 12:47:14;;;;;;;12.40;6.50;;;-9.60;65.00;;;;;;6183534;23;20005;-66
2022/01/12 12:49:50;;;;;;;10.25;5.53;;;-9.70;64.90;;;;;;6183343;23;20005;-65
2022/01/12 12:52:34;;;;;;;14.00;6.40;;;-9.80;65.60;;;;;;6183329;23;20001;-65
2022/01/12 12:55:05;;;;;;;11.40;6.38;;;-9.80;66.30;;;;;;6183145;23;20120;-65
2022/01/12 12:57:31;;;;;;;12.10;6.35;;;-10.00;66.90;;;;;;6183589;23;20079;-66
2022/01/12 13:00:16;;;;;;;12.57;7.00;;;-10.00;68.10;;;;;;6183420;23;20035;-64
2022/01/12 13:02:44;;;;;;;11.65;6.32;;;-10.00;68.50;;;;;;6183765;23;20080;-63
2022/01/12 13:05:13;;;;;;;10.60;5.90;;;-10.00;66.80;;;;;;6183407;23;20005;-65
2022/01/12 13:07:44;;;;;;;12.07;6.40;;;-10.00;66.10;;;;;;6183497;23;20016;-65
2022/01/12 13:10:14;;;;;;;12.30;6.28;;;-10.10;65.20;;;;;;6183576;23;20005;-64
2022/01/12 13:12:55;;;;;;;12.10;6.15;;;-10.20;64.80;;;;;;6183404;23;20001;-66
2022/01/12 13:15:27;;;;;;;10.98;6.18;;;-10.30;65.00;;;;;;6183301;23;20080;-65
2022/01/12 13:18:07;;;;;;;9.90;6.07;;;-10.30;64.80;;;;;;6183344;23;20705;-66
2022/01/12 13:23:28;;;;;;;11.68;6.18;;;-10.40;65.30;;;;;;6185433;23;20052;-64
2022/01/12 13:26:01;;;;;;;11.63;6.03;;;-10.40;65.40;;;;;;6185176;23;20009;-65
2022/01/12 13:28:27;;;;;;;13.77;6.40;;;-10.50;64.80;;;;;;6185170;23;20060;-65
2022/01/12 13:31:08;;;;;;;13.27;7.25;;;-10.60;65.40;;;;;;6185149;23;20043;-65
2022/01/12 13:33:35;;;;;;;13.68;7.50;;;-10.70;65.70;;;;;;6185134;23;20051;-64
2022/01/12 13:36:18;;;;;;;16.92;8.93;;;-10.70;65.80;;;;;;6185135;23;20005;-64
2022/01/12 13:38:48;;;;;;;27.33;14.38;;;-10.70;65.70;;;;;;6185433;23;20012;-64
2022/01/12 13:41:22;;;;;;;92.63;44.35;;;-10.80;65.60;;;;;;6184988;23;20005;-65
2022/01/12 13:44:21;;;;;;;58.30;28.02;;;-10.80;65.20;;;;;;6185411;23;20001;-65
2022/01/12 13:50:09;;;;;;;64.88;33.65;;;-11.00;65.50;;;;;;6095490;23;20085;-64
2022/01/12 13:52:36;;;;;;;167.77;76.38;;;-11.00;65.80;;;;;;6172814;23;20440;-65
2022/01/12 13:55:13;;;;;;;92.13;45.65;;;-11.10;66.40;;;;;;6185004;23;20004;-65
2022/01/12 13:57:39;;;;;;;30.45;17.58;;;-11.20;66.20;;;;;;6185131;23;20001;-65
2022/01/12 14:00:15;;;;;;;81.28;47.80;;;-11.30;66.00;;;;;;6185152;23;20012;-65
2022/01/12 14:02:42;;;;;;;36.35;23.05;;;-11.40;66.30;;;;;;6185090;23;20397;-65
2022/01/12 14:05:12;;;;;;;53.35;35.00;;;-11.50;66.30;;;;;;6185211;23;20001;-63
2022/01/12 14:07:40;;;;;;;33.55;22.15;;;-11.70;66.50;;;;;;6158803;23;20440;-66
2022/01/12 14:10:09;;;;;;;27.15;17.27;;;-11.80;66.60;;;;;;6184986;23;20005;-65